Time;durP1;ratioP1;P1;durP2;ratioP2;P2;SDS_P1;SDS_P2;PMS_P1;PMS_P2;Temp;Humidity;BMP_temperature;BMP_pressure;BME280_temperature;BME280_humidity;BME280_pressure;Samples;Min_cycle;Max_cycle;Signal;HPM_P1;HPM_P2
2023/07/12 00:01:57;;;;;;;4.57;2.00;;;;;;;13.38;100.00;99580.75;5014345;28;20133;-59
2023/07/12 00:04:29;;;;;;;2.70;1.70;;;;;;;13.40;100.00;99577.19;5024032;28;20056;-57
2023/07/12 00:07:00;;;;;;;2.58;1.75;;;;;;;13.45;100.00;99570.00;5014919;28;20072;-58
2023/07/12 00:09:31;;;;;;;6.75;1.90;;;;;;;13.45;100.00;99586.59;5024814;28;20163;-58
2023/07/12 00:12:01;;;;;;;3.15;2.00;;;;;;;13.42;100.00;99586.72;5014449;28;20041;-60
2023/07/12 00:14:34;;;;;;;2.08;1.60;;;;;;;13.37;100.00;99583.41;5024332;28;20055;-58
2023/07/12 00:17:05;;;;;;;2.53;1.63;;;;;;;13.32;100.00;99580.97;5013824;28;20057;-58
2023/07/12 00:19:37;;;;;;;6.45;1.85;;;;;;;13.35;100.00;99585.25;5024097;28;20414;-57
2023/07/12 00:22:10;;;;;;;6.00;1.90;;;;;;;13.37;100.00;99584.28;5010649;28;20522;-56
2023/07/12 00:24:40;;;;;;;3.67;1.85;;;;;;;13.42;100.00;99581.47;5003537;28;20071;-56
2023/07/12 00:27:13;;;;;;;3.78;1.95;;;;;;;13.38;100.00;99572.88;5024389;28;20136;-59
2023/07/12 00:29:43;;;;;;;2.88;2.00;;;;;;;13.41;100.00;99568.44;5013891;28;20531;-59
2023/07/12 00:32:14;;;;;;;3.60;2.10;;;;;;;13.43;100.00;99577.06;5024107;28;20045;-59
2023/07/12 00:34:46;;;;;;;3.42;1.70;;;;;;;13.41;100.00;99576.31;5026243;28;20048;-56
2023/07/12 00:37:17;;;;;;;3.78;2.20;;;;;;;13.42;100.00;99580.63;5025227;28;20095;-57
2023/07/12 00:39:48;;;;;;;4.53;2.15;;;;;;;13.43;100.00;99577.06;5013948;28;20079;-59
2023/07/12 00:42:24;;;;;;;4.82;1.50;;;;;;;13.31;100.00;99563.53;5024391;28;20052;-57
2023/07/12 00:44:59;;;;;;;4.70;2.00;;;;;;;13.37;100.00;99568.53;5013341;28;20063;-59
2023/07/12 00:47:33;;;;;;;3.13;1.60;;;;;;;13.51;100.00;99575.03;5023145;28;20546;-58
2023/07/12 00:50:18;;;;;;;4.60;2.00;;;;;;;13.45;100.00;99575.25;5010399;28;20483;-58
2023/07/12 00:52:49;;;;;;;2.42;1.35;;;;;;;13.45;100.00;99581.34;5009165;28;20076;-56
2023/07/12 00:55:56;;;;;;;2.03;1.30;;;;;;;13.41;100.00;99571.06;5023976;28;20460;-60
2023/07/12 00:58:28;;;;;;;3.50;1.60;;;;;;;13.20;100.00;99534.19;5023760;28;20284;-61
2023/07/12 01:01:02;;;;;;;1.77;1.23;;;;;;;13.43;100.00;99571.81;5006931;28;20318;-59
2023/07/12 01:03:37;;;;;;;1.53;1.23;;;;;;;12.88;100.00;99481.22;5023539;28;20779;-58
2023/07/12 01:06:12;;;;;;;1.70;1.20;;;;;;;13.48;100.00;99575.13;5012421;28;20359;-57
2023/07/12 01:08:43;;;;;;;1.43;1.30;;;;;;;13.49;100.00;99576.84;5010655;28;20288;-58
2023/07/12 01:11:17;;;;;;;2.55;1.40;;;;;;;13.55;100.00;99579.22;5023477;28;20295;-60
2023/07/12 01:13:50;;;;;;;2.55;1.25;;;;;;;13.61;100.00;99584.25;5015099;28;20095;-56
2023/07/12 01:16:22;;;;;;;4.80;1.30;;;;;;;13.44;100.00;99547.31;5026563;28;20048;-58
2023/07/12 01:18:53;;;;;;;1.83;1.45;;;;;;;13.69;100.00;99569.03;5016707;28;20595;-60
2023/07/12 01:21:27;;;;;;;4.03;1.40;;;;;;;13.50;100.00;99532.16;5024787;28;20064;-59
2023/07/12 01:23:58;;;;;;;1.30;0.90;;;;;;;13.73;100.00;99565.38;5014947;28;20059;-56
2023/07/12 01:26:34;;;;;;;1.92;1.23;;;;;;;13.66;100.00;99557.81;5026723;28;20044;-59
2023/07/12 01:29:06;;;;;;;2.78;1.17;;;;;;;13.70;100.00;99565.47;5016417;28;20106;-60
2023/07/12 01:31:38;;;;;;;2.85;0.77;;;;;;;13.65;100.00;99564.81;5045598;28;20139;-59
2023/07/12 01:34:10;;;;;;;2.08;0.90;;;;;;;13.37;100.00;99521.28;5022639;28;20041;-58
2023/07/12 01:36:42;;;;;;;2.95;0.90;;;;;;;13.67;100.00;99555.09;5017341;28;20061;-59
2023/07/12 01:39:13;;;;;;;0.60;0.60;;;;;;;13.46;100.00;99519.25;5026775;28;20459;-57
2023/07/12 01:41:44;;;;;;;3.35;1.52;;;;;;;13.55;100.00;99542.47;5016666;28;20037;-57
2023/07/12 01:44:14;;;;;;;5.40;1.30;;;;;;;13.68;100.00;99562.09;5026702;28;20357;-56
2023/07/12 01:46:45;;;;;;;2.75;0.70;;;;;;;13.78;100.00;99555.53;5016349;28;20268;-58
2023/07/12 01:49:15;;;;;;;1.50;0.90;;;;;;;13.80;100.00;99566.84;5026615;28;20063;-59
2023/07/12 01:51:49;;;;;;;1.15;0.70;;;;;;;13.62;100.00;99520.31;5016741;28;20310;-58
2023/07/12 01:54:19;;;;;;;1.23;1.00;;;;;;;13.68;100.00;99525.34;5027243;28;20053;-59
2023/07/12 01:56:50;;;;;;;1.50;0.80;;;;;;;13.91;100.00;99555.03;5017075;28;20748;-59
2023/07/12 01:59:20;;;;;;;1.73;1.00;;;;;;;13.94;100.00;99557.53;5026902;28;20299;-60
2023/07/12 02:01:52;;;;;;;0.80;0.77;;;;;;;13.93;100.00;99561.09;5016337;28;20374;-59
2023/07/12 02:04:23;;;;;;;1.17;0.90;;;;;;;13.34;100.00;99461.06;5026777;28;20298;-54
2023/07/12 02:06:55;;;;;;;0.80;0.70;;;;;;;14.01;100.00;99559.00;5016457;28;20651;-58
2023/07/12 02:09:25;;;;;;;3.22;0.70;;;;;;;14.04;100.00;99566.72;5026624;28;20602;-59
2023/07/12 02:11:56;;;;;;;2.97;0.75;;;;;;;14.02;100.00;99555.44;5008691;28;20084;-57
2023/07/12 02:14:27;;;;;;;3.13;0.88;;;;;;;14.10;100.00;99545.44;5026845;28;20045;-59
2023/07/12 02:16:57;;;;;;;1.53;0.70;;;;;;;14.14;100.00;99544.41;5008501;28;20045;-58
2023/07/12 02:19:28;;;;;;;2.80;0.90;;;;;;;14.18;100.00;99546.00;5026035;28;20722;-59
2023/07/12 02:22:00;;;;;;;1.13;0.80;;;;;;;14.22;100.00;99537.03;5016948;28;20421;-61
2023/07/12 02:24:31;;;;;;;1.83;0.77;;;;;;;14.16;100.00;99537.31;5024875;28;20284;-61
2023/07/12 02:27:02;;;;;;;2.03;0.83;;;;;;;14.18;100.00;99529.38;5012631;28;20344;-58
2023/07/12 02:29:33;;;;;;;0.90;0.70;;;;;;;14.21;100.00;99532.72;5023624;28;20295;-56
2023/07/12 02:32:03;;;;;;;0.70;0.70;;;;;;;14.24;100.00;99529.97;5012330;28;20656;-54
2023/07/12 02:34:34;;;;;;;1.70;0.90;;;;;;;14.29;100.00;99521.03;5024909;28;20280;-58
2023/07/12 02:37:06;;;;;;;1.30;0.80;;;;;;;14.47;100.00;99536.00;5012976;28;20290;-60
2023/07/12 02:39:37;;;;;;;2.37;1.10;;;;;;;14.50;100.00;99530.59;5018734;28;20685;-57
2023/07/12 02:42:08;;;;;;;1.50;0.90;;;;;;;14.57;100.00;99537.31;4995479;28;20606;-60
2023/07/12 02:44:40;;;;;;;0.97;0.90;;;;;;;14.58;100.00;99536.41;5002557;28;20723;-58
2023/07/12 02:47:11;;;;;;;1.87;0.80;;;;;;;14.45;100.00;99543.06;5005895;28;20298;-55
2023/07/12 02:49:42;;;;;;;2.20;0.90;;;;;;;14.35;100.00;99533.88;4995419;28;20280;-59
2023/07/12 02:52:14;;;;;;;2.53;1.10;;;;;;;14.35;100.00;99541.78;5005528;28;20280;-60
2023/07/12 02:54:44;;;;;;;3.40;1.07;;;;;;;14.32;100.00;99536.66;4995845;28;20296;-58
2023/07/12 02:57:17;;;;;;;1.83;0.63;;;;;;;14.23;100.00;99538.78;5006202;28;20288;-60
2023/07/12 02:59:47;;;;;;;1.43;0.90;;;;;;;14.19;100.00;99537.19;4995445;28;20387;-56
2023/07/12 03:02:18;;;;;;;1.37;0.87;;;;;;;14.18;100.00;99534.66;5005393;28;20342;-58
2023/07/12 03:04:49;;;;;;;0.83;0.73;;;;;;;14.16;100.00;99532.06;4995516;28;20287;-60
2023/07/12 03:07:21;;;;;;;1.00;0.90;;;;;;;14.15;100.00;99530.38;5005520;28;20749;-58
2023/07/12 03:09:54;;;;;;;1.33;1.03;;;;;;;14.17;100.00;99533.75;4995755;28;20301;-58
2023/07/12 03:12:24;;;;;;;1.30;1.10;;;;;;;14.22;100.00;99534.41;5005522;28;20664;-58
2023/07/12 03:14:55;;;;;;;2.00;1.03;;;;;;;14.28;100.00;99529.81;4995242;28;20367;-57
2023/07/12 03:17:25;;;;;;;1.37;1.00;;;;;;;14.27;100.00;99528.13;5005491;28;20289;-62
2023/07/12 03:19:56;;;;;;;3.40;0.90;;;;;;;14.20;100.00;99538.91;5001902;28;20681;-57
2023/07/12 03:22:28;;;;;;;1.20;0.80;;;;;;;14.18;100.00;99532.88;5029624;28;20263;-59
2023/07/12 03:24:59;;;;;;;2.00;1.10;;;;;;;14.14;100.00;99536.53;5027905;28;20735;-59
2023/07/12 03:27:29;;;;;;;12.40;1.53;;;;;;;14.02;100.00;99530.00;5045132;28;20275;-58
2023/07/12 03:29:59;;;;;;;0.73;0.70;;;;;;;13.96;100.00;99524.19;5034458;28;20366;-60
2023/07/12 03:32:30;;;;;;;2.80;1.00;;;;;;;14.02;100.00;99544.94;5044361;28;20279;-56
2023/07/12 03:35:00;;;;;;;8.23;0.90;;;;;;;13.93;100.00;99545.34;5008282;28;20341;-58
2023/07/12 03:37:33;;;;;;;1.80;0.87;;;;;;;13.97;100.00;99542.47;5019154;28;20753;-61
2023/07/12 03:40:05;;;;;;;4.70;1.20;;;;;;;14.06;100.00;99533.38;5006125;28;20363;-57
2023/07/12 03:42:36;;;;;;;1.90;1.20;;;;;;;14.07;100.00;99532.44;5011596;28;20060;-61
2023/07/12 03:45:08;;;;;;;1.13;0.90;;;;;;;14.06;100.00;99525.50;5010905;28;20284;-61
2023/07/12 03:47:38;;;;;;;1.70;1.10;;;;;;;14.05;100.00;99529.03;5015044;28;20292;-60
2023/07/12 03:50:10;;;;;;;1.33;0.90;;;;;;;14.10;100.00;99532.31;5016344;28;20291;-61
2023/07/12 03:52:43;;;;;;;2.00;1.20;;;;;;;14.11;100.00;99528.78;5009040;28;20291;-61
2023/07/12 03:55:14;;;;;;;2.07;0.83;;;;;;;14.14;100.00;99528.66;5017991;28;20721;-61
2023/07/12 03:57:44;;;;;;;0.50;0.50;;;;;;;14.12;100.00;99524.38;5006075;28;20399;-59
2023/07/12 04:00:16;;;;;;;1.60;0.80;;;;;;;14.03;100.00;99512.50;5017659;28;20797;-63
2023/07/12 04:02:46;;;;;;;1.63;0.77;;;;;;;14.06;100.00;99520.25;5006542;28;20632;-58
2023/07/12 04:05:17;;;;;;;1.40;0.80;;;;;;;14.04;100.00;99522.09;5016196;28;20272;-60
2023/07/12 04:07:51;;;;;;;1.20;0.90;;;;;;;14.01;100.00;99512.56;5007173;28;20327;-63
2023/07/12 04:10:23;;;;;;;1.87;0.90;;;;;;;14.01;100.00;99509.09;5017416;28;20306;-58
2023/07/12 04:12:54;;;;;;;0.93;0.70;;;;;;;14.05;100.00;99508.00;5003865;28;20730;-63
2023/07/12 04:15:25;;;;;;;1.90;0.93;;;;;;;14.01;100.00;99501.22;5016168;28;20419;-62
2023/07/12 04:17:56;;;;;;;3.00;0.90;;;;;;;13.90;100.00;99508.66;5011412;28;20303;-59
2023/07/12 04:20:30;;;;;;;1.20;1.00;;;;;;;13.86;100.00;99491.34;5043016;28;20637;-57
2023/07/12 04:23:02;;;;;;;1.20;1.10;;;;;;;13.75;100.00;99484.78;5014172;28;20311;-57
2023/07/12 04:25:33;;;;;;;1.20;0.90;;;;;;;13.75;100.00;99487.41;5016294;28;20283;-61
2023/07/12 04:28:05;;;;;;;1.10;1.00;;;;;;;13.69;100.00;99482.41;5007092;28;20326;-58
2023/07/12 04:30:35;;;;;;;4.03;1.00;;;;;;;13.74;100.00;99488.31;5017245;28;20350;-61
2023/07/12 04:33:07;;;;;;;1.23;1.03;;;;;;;13.68;100.00;99491.19;5010077;28;20765;-63
2023/07/12 04:35:41;;;;;;;4.70;1.03;;;;;;;13.61;100.00;99487.13;5011931;28;20670;-60
2023/07/12 04:38:13;;;;;;;5.25;1.00;;;;;;;13.55;100.00;99482.09;5015242;28;20322;-61
2023/07/12 04:40:44;;;;;;;1.43;1.00;;;;;;;13.54;100.00;99486.50;5006880;28;20076;-62
2023/07/12 04:43:14;;;;;;;3.65;1.30;;;;;;;13.57;100.00;99480.28;5017996;28;20714;-59
2023/07/12 04:45:47;;;;;;;1.35;1.10;;;;;;;13.60;100.00;99474.91;5008963;28;20044;-61
2023/07/12 04:48:18;;;;;;;1.52;0.90;;;;;;;13.66;100.00;99474.66;5020122;28;20340;-63
2023/07/12 04:50:52;;;;;;;1.33;1.20;;;;;;;13.57;100.00;99454.03;5009268;28;20056;-61
2023/07/12 04:53:25;;;;;;;4.77;1.20;;;;;;;13.46;100.00;99440.50;5020661;28;20386;-60
2023/07/12 04:55:55;;;;;;;7.35;1.35;;;;;;;13.73;100.00;99460.34;5010507;28;20323;-65
2023/07/12 04:58:26;;;;;;;1.17;0.98;;;;;;;13.81;100.00;99465.28;5022124;28;20036;-60
2023/07/12 05:00:57;;;;;;;1.10;0.95;;;;;;;13.80;100.00;99456.56;5010743;28;20043;-62
2023/07/12 05:03:28;;;;;;;0.80;0.80;;;;;;;13.82;100.00;99459.94;5021254;28;20045;-62
2023/07/12 05:05:59;;;;;;;1.38;1.10;;;;;;;13.81;100.00;99458.25;5010812;28;20189;-62
2023/07/12 05:08:52;;;;;;;0.70;0.60;;;;;;;13.75;100.00;99461.16;5010330;28;20379;-59
2023/07/12 05:11:22;;;;;;;1.07;0.97;;;;;;;13.78;100.00;99453.13;5023318;28;20295;-62
2023/07/12 05:13:53;;;;;;;2.45;0.90;;;;;;;13.76;100.00;99449.72;5011555;28;20290;-60
2023/07/12 05:16:23;;;;;;;2.55;1.10;;;;;;;13.77;100.00;99440.91;5020404;28;20140;-57
2023/07/12 05:18:54;;;;;;;3.20;0.97;;;;;;;13.64;100.00;99452.00;5009954;28;20144;-62
2023/07/12 05:21:25;;;;;;;3.23;0.93;;;;;;;13.52;100.00;99440.25;5021716;28;20368;-62
2023/07/12 05:23:57;;;;;;;3.45;1.00;;;;;;;13.49;100.00;99440.38;5012067;28;20313;-60
2023/07/12 05:26:28;;;;;;;2.45;1.23;;;;;;;13.41;100.00;99445.09;5022714;28;20383;-62
2023/07/12 05:28:58;;;;;;;4.97;1.20;;;;;;;13.36;100.00;99440.88;5015520;28;20129;-60
2023/07/12 05:31:29;;;;;;;1.85;1.33;;;;;;;13.46;100.00;99440.50;5020408;28;20049;-61
2023/07/12 05:33:59;;;;;;;1.47;0.97;;;;;;;13.40;100.00;99440.75;5008132;28;20376;-62
2023/07/12 05:36:30;;;;;;;3.42;1.35;;;;;;;13.44;100.00;99440.56;5019035;28;20287;-59
2023/07/12 05:39:04;;;;;;;2.33;1.10;;;;;;;13.41;100.00;99447.72;5008468;28;20102;-59
2023/07/12 05:41:34;;;;;;;2.00;1.00;;;;;;;13.41;100.00;99450.34;5018961;28;20335;-60
2023/07/12 05:44:05;;;;;;;0.93;0.80;;;;;;;13.36;100.00;99448.75;5010123;28;20282;-63
2023/07/12 05:46:37;;;;;;;2.40;1.00;;;;;;;13.34;100.00;99453.19;5018933;28;20517;-59
2023/07/12 05:49:07;;;;;;;3.07;1.30;;;;;;;13.35;100.00;99452.31;5008880;28;20271;-61
2023/07/12 05:51:38;;;;;;;1.80;1.33;;;;;;;13.35;100.00;99439.19;5022933;28;20272;-61
2023/07/12 05:54:14;;;;;;;1.77;1.20;;;;;;;13.32;100.00;99447.16;5008820;28;20060;-58
2023/07/12 05:56:44;;;;;;;1.98;1.50;;;;;;;13.35;100.00;99444.44;5009671;28;20363;-61
2023/07/12 05:59:15;;;;;;;3.45;1.67;;;;;;;13.31;100.00;99437.59;5019900;28;20200;-58
2023/07/12 06:01:46;;;;;;;2.00;1.23;;;;;;;13.25;100.00;99435.16;5008296;28;20064;-60
2023/07/12 06:04:16;;;;;;;2.78;1.60;;;;;;;13.30;100.00;99435.88;5019749;28;20148;-59
2023/07/12 06:06:52;;;;;;;4.32;1.73;;;;;;;13.27;100.00;99435.16;5008569;28;20151;-61
2023/07/12 06:09:24;;;;;;;2.90;1.40;;;;;;;13.16;100.00;99425.06;5018101;28;20067;-61
2023/07/12 06:11:55;;;;;;;5.47;1.70;;;;;;;13.23;100.00;99431.78;5007087;28;20095;-60
2023/07/12 06:14:25;;;;;;;2.40;1.50;;;;;;;13.23;100.00;99429.16;5022844;28;20068;-62
2023/07/12 06:16:56;;;;;;;2.63;1.45;;;;;;;13.20;100.00;99444.16;5008936;28;20479;-61
2023/07/12 06:19:26;;;;;;;2.20;1.52;;;;;;;13.19;100.00;99447.69;5019702;28;20360;-62
2023/07/12 06:21:57;;;;;;;2.10;1.38;;;;;;;13.19;100.00;99443.31;5006676;28;20067;-62
2023/07/12 06:24:29;;;;;;;2.85;1.52;;;;;;;13.25;100.00;99453.53;5020386;28;20046;-61
2023/07/12 06:26:59;;;;;;;1.60;1.20;;;;;;;13.31;100.00;99450.72;5009352;28;20624;-62
2023/07/12 06:29:32;;;;;;;2.15;1.13;;;;;;;13.26;100.00;99455.25;5030902;28;20290;-57
2023/07/12 06:32:04;;;;;;;4.50;1.30;;;;;;;13.20;100.00;99450.25;5012987;28;20057;-60
2023/07/12 06:34:35;;;;;;;1.10;1.00;;;;;;;13.09;100.00;99442.81;5020372;28;20469;-62
2023/07/12 06:37:05;;;;;;;2.95;1.10;;;;;;;13.16;100.00;99460.03;5008646;28;20345;-60
2023/07/12 06:39:38;;;;;;;1.20;1.00;;;;;;;13.15;100.00;99457.44;5018305;28;20459;-59
2023/07/12 06:42:09;;;;;;;2.97;1.20;;;;;;;13.10;100.00;99460.28;5005260;28;20066;-61
2023/07/12 06:44:39;;;;;;;1.30;1.00;;;;;;;13.04;100.00;99449.16;5011358;28;20033;-60
2023/07/12 06:47:10;;;;;;;1.20;1.02;;;;;;;13.02;100.00;99450.97;5018589;28;20079;-59
2023/07/12 06:49:40;;;;;;;3.03;1.30;;;;;;;13.01;100.00;99454.53;5005768;28;20057;-60
2023/07/12 06:52:11;;;;;;;1.73;1.30;;;;;;;13.00;100.00;99447.56;5018242;28;20144;-55
2023/07/12 06:54:43;;;;;;;1.30;1.20;;;;;;;13.02;100.00;99445.75;5010168;28;20045;-60
2023/07/12 06:57:14;;;;;;;2.50;1.10;;;;;;;13.04;100.00;99459.66;5018170;28;20456;-60
2023/07/12 06:59:44;;;;;;;2.78;1.38;;;;;;;13.05;100.00;99456.09;5008722;28;20056;-60
2023/07/12 07:02:15;;;;;;;5.15;1.75;;;;;;;13.02;100.00;99451.84;5018129;28;20056;-61
2023/07/12 07:04:46;;;;;;;1.65;1.27;;;;;;;13.05;100.00;99458.72;5007913;28;20638;-56
2023/07/12 07:07:16;;;;;;;1.40;1.23;;;;;;;13.07;100.00;99464.78;5018232;28;20049;-62
2023/07/12 07:09:48;;;;;;;1.63;1.40;;;;;;;13.11;100.00;99461.13;4997130;28;20151;-55
2023/07/12 07:12:19;;;;;;;2.40;1.40;;;;;;;13.10;100.00;99456.78;5020295;28;20167;-61
2023/07/12 07:14:49;;;;;;;1.80;1.50;;;;;;;13.07;100.00;99454.28;5009977;28;20045;-61
2023/07/12 07:17:20;;;;;;;1.70;1.30;;;;;;;13.06;100.00;99463.06;5019749;28;20135;-59
2023/07/12 07:19:51;;;;;;;2.08;1.30;;;;;;;13.06;100.00;99457.84;5009273;28;20049;-57
2023/07/12 07:22:21;;;;;;;3.75;1.52;;;;;;;13.04;100.00;99464.91;5020128;28;20049;-60
2023/07/12 07:24:54;;;;;;;3.47;1.40;;;;;;;13.00;100.00;99452.81;5010692;28;20500;-59
2023/07/12 07:27:24;;;;;;;1.27;1.17;;;;;;;12.98;100.00;99460.75;5020758;28;20698;-61
2023/07/12 07:29:55;;;;;;;3.30;1.50;;;;;;;12.97;100.00;99452.94;5002758;28;20543;-62
2023/07/12 07:32:25;;;;;;;3.58;1.73;;;;;;;12.94;100.00;99449.50;5019686;28;20056;-62
2023/07/12 07:34:56;;;;;;;5.03;1.80;;;;;;;12.95;100.00;99446.00;5009280;28;20053;-59
2023/07/12 07:37:26;;;;;;;2.50;1.65;;;;;;;12.95;100.00;99446.00;5020317;28;20052;-60
2023/07/12 07:39:59;;;;;;;7.57;2.28;;;;;;;12.99;100.00;99445.88;5009991;28;20060;-61
2023/07/12 07:42:29;;;;;;;2.88;1.75;;;;;;;12.97;100.00;99438.06;5020263;28;20487;-58
2023/07/12 07:45:00;;;;;;;3.55;1.60;;;;;;;12.94;100.00;99449.50;5009859;28;20386;-62
2023/07/12 07:47:30;;;;;;;3.20;1.50;;;;;;;12.87;100.00;99442.78;5020106;28;20864;-59
2023/07/12 07:50:01;;;;;;;1.60;1.33;;;;;;;12.87;100.00;99450.66;5009678;28;20075;-59
2023/07/12 07:52:31;;;;;;;3.20;1.40;;;;;;;12.85;100.00;99459.50;5020233;28;20118;-60
2023/07/12 07:55:05;;;;;;;2.33;1.77;;;;;;;12.76;100.00;99450.25;5007908;28;20396;-59
2023/07/12 07:57:36;;;;;;;2.40;1.30;;;;;;;12.80;100.00;99456.19;5019496;28;20164;-57
2023/07/12 08:00:10;;;;;;;3.60;1.63;;;;;;;12.76;100.00;99454.63;5008960;28;20121;-60
2023/07/12 08:02:42;;;;;;;3.33;1.20;;;;;;;12.80;100.00;99461.44;5009430;28;20037;-58
2023/07/12 08:05:14;;;;;;;5.55;1.60;;;;;;;12.37;100.00;99393.16;5019485;28;20040;-61
2023/07/12 08:07:46;;;;;;;2.42;1.50;;;;;;;12.29;100.00;99377.75;5009938;28;20032;-60
2023/07/12 08:10:19;;;;;;;3.53;1.70;;;;;;;12.73;100.00;99442.50;5019069;28;20127;-59
2023/07/12 08:12:50;;;;;;;3.38;1.42;;;;;;;12.61;100.00;99414.13;5010503;28;20056;-60
2023/07/12 08:15:21;;;;;;;1.27;1.02;;;;;;;12.47;100.00;99399.78;5020667;28;20033;-61
2023/07/12 08:17:52;;;;;;;1.92;1.40;;;;;;;12.70;100.00;99432.09;5008573;28;20185;-55
2023/07/12 08:20:24;;;;;;;1.88;1.10;;;;;;;12.70;100.00;99413.75;5019522;28;20396;-60
2023/07/12 08:22:55;;;;;;;2.30;1.55;;;;;;;12.68;100.00;99418.19;5008541;28;20060;-57
2023/07/12 08:25:29;;;;;;;1.25;1.08;;;;;;;12.67;100.00;99419.97;5017516;28;20048;-59
2023/07/12 08:28:00;;;;;;;2.08;1.40;;;;;;;12.68;100.00;99420.81;5008674;28;20759;-59
2023/07/12 08:30:32;;;;;;;1.67;1.30;;;;;;;12.66;100.00;99422.66;5019026;28;20664;-60
2023/07/12 08:33:04;;;;;;;3.30;1.23;;;;;;;12.60;100.00;99401.94;5008646;28;20059;-60
2023/07/12 08:35:36;;;;;;;3.80;1.30;;;;;;;12.68;100.00;99418.19;5018038;28;20041;-59
2023/07/12 08:38:19;;;;;;;4.65;1.52;;;;;;;12.68;100.00;99415.59;5008228;28;20472;-61
2023/07/12 08:40:54;;;;;;;1.63;1.17;;;;;;;12.65;100.00;99405.22;5008426;28;20077;-61
2023/07/12 08:43:33;;;;;;;3.33;1.15;;;;;;;12.66;100.00;99417.44;5017312;28;20040;-59
2023/07/12 08:46:11;;;;;;;1.65;1.17;;;;;;;12.54;100.00;99410.03;5008186;28;20056;-58
2023/07/12 08:48:44;;;;;;;4.75;1.15;;;;;;;12.63;100.00;99438.50;5005771;28;20049;-59
2023/07/12 08:51:19;;;;;;;2.38;1.00;;;;;;;12.65;100.00;99441.91;5018192;28;20049;-59
2023/07/12 08:53:51;;;;;;;1.23;0.90;;;;;;;12.65;100.00;99447.16;5007447;28;20056;-60
2023/07/12 08:56:25;;;;;;;1.38;0.90;;;;;;;12.64;100.00;99445.47;5018918;28;20152;-60
2023/07/12 08:58:57;;;;;;;2.25;0.90;;;;;;;12.68;100.00;99452.28;5010202;28;20917;-59
2023/07/12 09:01:51;;;;;;;1.08;0.98;;;;;;;12.70;100.00;99450.44;5018578;28;20067;-56
2023/07/12 09:04:27;;;;;;;0.70;0.70;;;;;;;12.62;100.00;99442.03;5016384;28;20152;-57
2023/07/12 09:07:01;;;;;;;0.93;0.77;;;;;;;12.68;100.00;99453.16;5008182;28;20057;-57
2023/07/12 09:09:39;;;;;;;0.60;0.60;;;;;;;12.67;100.00;99456.66;5016335;28;20037;-58
2023/07/12 09:12:25;;;;;;;2.13;0.82;;;;;;;12.38;100.00;99413.25;5007097;28;20057;-57
2023/07/12 09:15:01;;;;;;;1.13;0.90;;;;;;;12.63;100.00;99459.47;5001795;28;20387;-60
2023/07/12 09:17:44;;;;;;;1.45;0.80;;;;;;;12.55;100.00;99436.16;5014243;28;20444;-61
2023/07/12 09:20:28;;;;;;;2.17;0.60;;;;;;;12.64;100.00;99461.19;5005140;28;20056;-60
2023/07/12 09:23:04;;;;;;;1.00;0.73;;;;;;;12.60;100.00;99454.34;5006381;28;20489;-58
2023/07/12 09:25:38;;;;;;;2.38;0.90;;;;;;;12.59;100.00;99447.41;5016826;28;20049;-60
2023/07/12 09:28:16;;;;;;;2.05;1.25;;;;;;;12.68;100.00;99457.50;5004205;28;20037;-60
2023/07/12 09:30:48;;;;;;;0.88;0.75;;;;;;;12.70;100.00;99460.94;5006295;28;20059;-59
2023/07/12 09:33:25;;;;;;;2.65;0.70;;;;;;;12.69;100.00;99454.00;5018112;28;20464;-61
2023/07/12 09:36:08;;;;;;;0.90;0.70;;;;;;;12.67;100.00;99451.44;4997972;28;20063;-60
2023/07/12 09:38:40;;;;;;;1.55;0.80;;;;;;;12.62;100.00;99436.78;5005930;28;20060;-59
2023/07/12 09:41:19;;;;;;;1.60;0.80;;;;;;;12.60;100.00;99460.44;5029045;28;20053;-58
2023/07/12 09:43:56;;;;;;;1.25;1.00;;;;;;;12.52;100.00;99447.63;5010804;28;20053;-58
2023/07/12 09:46:36;;;;;;;1.05;0.70;;;;;;;12.32;100.00;99400.34;5021659;28;20045;-59
2023/07/12 09:49:15;;;;;;;1.88;0.80;;;;;;;12.58;100.00;99449.19;5007636;28;20048;-60
2023/07/12 09:52:07;;;;;;;3.35;1.15;;;;;;;12.02;100.00;99352.59;5010715;28;20155;-61
2023/07/12 09:54:52;;;;;;;3.63;1.10;;;;;;;12.60;100.00;99441.22;5014419;28;20064;-60
2023/07/12 09:57:39;;;;;;;2.30;0.85;;;;;;;12.62;100.00;99444.66;5017457;28;20063;-58
2023/07/12 10:00:23;;;;;;;2.42;1.50;;;;;;;12.39;100.00;99404.44;5007783;28;20291;-60
2023/07/12 10:03:18;;;;;;;3.55;1.40;;;;;;;12.70;100.00;99445.22;5011931;28;20381;-59
2023/07/12 10:05:56;;;;;;;3.30;1.10;;;;;;;12.63;100.00;99448.97;5007266;28;20057;-60
2023/07/12 10:08:39;;;;;;;1.23;0.93;;;;;;;12.59;100.00;99448.25;5021652;28;20057;-57
2023/07/12 10:11:17;;;;;;;1.38;0.70;;;;;;;12.61;100.00;99453.44;5002418;28;20056;-56
2023/07/12 10:13:53;;;;;;;6.20;1.10;;;;;;;12.57;100.00;99449.22;5014409;28;20267;-60
2023/07/12 10:16:30;;;;;;;1.92;1.00;;;;;;;12.52;100.00;99452.84;5021776;28;22740;-61
2023/07/12 10:19:29;;;;;;;1.00;0.73;;;;;;;12.56;100.00;99458.00;5010286;28;20103;-57
2023/07/12 10:22:05;;;;;;;1.10;0.80;;;;;;;12.28;100.00;99417.06;5011592;28;20067;-58
2023/07/12 10:24:42;;;;;;;0.85;0.80;;;;;;;12.58;100.00;99464.03;5022319;28;20460;-57
2023/07/12 10:27:19;;;;;;;1.40;1.00;;;;;;;12.59;100.00;99457.88;5010384;28;20438;-54
2023/07/12 10:29:57;;;;;;;1.95;1.13;;;;;;;12.30;100.00;99420.50;5010611;28;20088;-57
2023/07/12 10:32:37;;;;;;;1.50;1.00;;;;;;;12.56;100.00;99473.72;5022741;28;20136;-60
2023/07/12 10:35:22;;;;;;;0.60;0.60;;;;;;;12.49;100.00;99466.06;5008994;28;20107;-59
2023/07/12 10:38:00;;;;;;;2.50;0.90;;;;;;;12.50;100.00;99470.44;5010785;28;20147;-59
2023/07/12 10:40:38;;;;;;;2.95;0.90;;;;;;;12.49;100.00;99479.19;5020454;28;20045;-56
2023/07/12 10:43:16;;;;;;;3.92;0.80;;;;;;;12.49;100.00;99484.41;5010425;28;20065;-60
2023/07/12 10:45:52;;;;;;;1.15;0.90;;;;;;;12.45;100.00;99488.06;5010037;28;20760;-61
2023/07/12 10:48:29;;;;;;;1.13;1.00;;;;;;;12.38;100.00;99473.50;5016081;28;20052;-60
2023/07/12 10:51:21;;;;;;;2.17;1.10;;;;;;;12.33;100.00;99472.81;5010122;28;20100;-60
2023/07/12 10:53:54;;;;;;;1.30;1.20;;;;;;;12.38;100.00;99481.34;5010233;28;20049;-61
2023/07/12 10:56:34;;;;;;;2.47;1.50;;;;;;;12.38;100.00;99491.84;5017277;28;20072;-58
2023/07/12 10:59:27;;;;;;;3.60;1.00;;;;;;;12.38;100.00;99486.59;5010341;28;20037;-60
2023/07/12 11:02:26;;;;;;;2.08;0.90;;;;;;;12.38;100.00;99498.81;5010320;28;20061;-58
2023/07/12 11:05:02;;;;;;;2.08;0.90;;;;;;;12.38;100.00;99504.94;5005002;28;20081;-58
2023/07/12 11:07:40;;;;;;;4.00;1.00;;;;;;;12.37;100.00;99510.22;5018888;28;20348;-62
2023/07/12 11:10:26;;;;;;;1.30;0.90;;;;;;;12.29;100.00;99500.00;5009786;28;20041;-60
2023/07/12 11:13:19;;;;;;;2.65;1.20;;;;;;;12.31;100.00;99511.28;5006571;28;20049;-59
2023/07/12 11:16:00;;;;;;;3.15;1.00;;;;;;;12.21;100.00;99496.81;5005634;28;20072;-61
2023/07/12 11:18:39;;;;;;;2.67;1.00;;;;;;;12.24;100.00;99504.56;5018139;28;20043;-60
2023/07/12 11:21:29;;;;;;;1.23;1.10;;;;;;;12.26;100.00;99507.97;5007026;28;20037;-59
2023/07/12 11:24:21;;;;;;;2.72;0.90;;;;;;;12.19;100.00;99501.25;5009481;28;20053;-59
2023/07/12 11:26:57;;;;;;;1.83;0.93;;;;;;;12.22;100.00;99511.59;5008699;28;20448;-62
2023/07/12 11:29:35;;;;;;;1.42;0.98;;;;;;;11.97;100.00;99465.31;5016239;28;20064;-59
2023/07/12 11:32:22;;;;;;;7.18;1.20;;;;;;;12.23;100.00;99508.06;5006983;28;20553;-61
2023/07/12 11:35:01;;;;;;;2.05;1.05;;;;;;;12.19;100.00;99506.50;5007343;28;20049;-61
2023/07/12 11:37:43;;;;;;;2.85;1.08;;;;;;;12.09;100.00;99496.31;5017105;28;20055;-56
2023/07/12 11:40:26;;;;;;;1.85;1.20;;;;;;;12.15;100.00;99484.78;5005539;28;20364;-62
2023/07/12 11:42:58;;;;;;;3.75;1.50;;;;;;;12.17;100.00;99489.97;5007835;28;20810;-55
2023/07/12 11:45:33;;;;;;;2.42;1.40;;;;;;;12.27;100.00;99507.06;5019533;28;20059;-62
2023/07/12 11:48:09;;;;;;;5.88;1.58;;;;;;;12.26;100.00;99502.75;5007414;28;20111;-56
2023/07/12 11:50:42;;;;;;;5.30;1.40;;;;;;;12.23;100.00;99502.81;5009399;28;20525;-62
2023/07/12 11:53:16;;;;;;;3.72;1.17;;;;;;;12.23;100.00;99492.34;5017503;28;20052;-61
2023/07/12 11:55:53;;;;;;;1.85;1.10;;;;;;;12.16;100.00;99490.88;5009170;28;20049;-61